Time;durP1;ratioP1;P1;durP2;ratioP2;P2;SDS_P1;SDS_P2;PMS_P1;PMS_P2;Temp;Humidity;BMP_temperature;BMP_pressure;BME280_temperature;BME280_humidity;BME280_pressure;Samples;Min_cycle;Max_cycle;Signal;HPM_P1;HPM_P2
2024/01/15 00:01:14;;;;;;;30.03;13.70;;;;;;;-0.06;93.45;62905.16;5071910;28;20511;-55
2024/01/15 00:03:40;;;;;;;22.43;13.20;;;;;;;0.40;87.60;62952.50;5071927;28;20243;-54
2024/01/15 00:06:06;;;;;;;33.50;14.70;;;;;;;0.25;87.28;62938.19;5071716;28;20576;-55
2024/01/15 00:08:32;;;;;;;27.50;13.90;;;;;;;0.28;87.80;62942.00;5071732;28;20223;-55
2024/01/15 00:10:58;;;;;;;29.60;14.23;;;;;;;0.28;91.08;62938.97;5071812;28;20181;-55
2024/01/15 00:13:23;;;;;;;29.83;15.13;;;;;;;0.11;93.35;62920.56;5071709;28;20296;-55
2024/01/15 00:15:51;;;;;;;27.53;15.33;;;;;;;0.17;91.70;62929.53;5071886;28;20192;-55
2024/01/15 00:18:16;;;;;;;27.37;14.20;;;;;;;-0.06;95.50;62905.72;5071574;28;20213;-54
2024/01/15 00:20:42;;;;;;;27.63;13.63;;;;;;;0.17;91.09;62929.53;5053562;28;20200;-55
2024/01/15 00:23:09;;;;;;;33.93;15.50;;;;;;;0.03;93.54;62914.91;5071356;28;20212;-55
2024/01/15 00:25:34;;;;;;;29.90;15.17;;;;;;;-0.38;97.18;62870.53;5071535;28;20216;-54
2024/01/15 00:28:00;;;;;;;31.27;14.53;;;;;;;-0.37;98.58;62871.63;5071644;28;20702;-55
2024/01/15 00:30:26;;;;;;;26.73;14.03;;;;;;;-0.22;97.56;62890.88;5071433;28;20540;-53
2024/01/15 00:32:52;;;;;;;25.13;15.10;;;;;;;-0.56;100.00;62851.63;5053406;28;20219;-53
2024/01/15 00:35:18;;;;;;;25.83;14.37;;;;;;;-0.31;97.21;62875.66;5036928;28;20189;-54
2024/01/15 00:37:43;;;;;;;37.27;15.23;;;;;;;-0.03;95.23;62908.97;5071979;28;20209;-56
2024/01/15 00:40:09;;;;;;;29.60;15.03;;;;;;;0.05;93.33;62914.06;5071499;28;20200;-60
2024/01/15 00:42:35;;;;;;;27.80;14.13;;;;;;;0.13;92.84;62923.28;5071548;28;20213;-54
2024/01/15 00:45:00;;;;;;;28.93;13.67;;;;;;;0.13;90.80;62925.19;5071322;28;20568;-54
2024/01/15 00:47:26;;;;;;;31.20;16.13;;;;;;;0.00;91.36;62912.22;5053120;28;20223;-54
2024/01/15 00:49:51;;;;;;;33.50;16.77;;;;;;;0.03;93.48;62914.91;5071306;28;20279;-53
2024/01/15 00:52:17;;;;;;;28.00;14.57;;;;;;;0.07;93.82;62918.69;5071253;28;20212;-53
2024/01/15 00:54:42;;;;;;;33.67;15.90;;;;;;;-0.10;93.91;62901.38;5053148;28;20278;-53
2024/01/15 00:57:08;;;;;;;27.03;14.67;;;;;;;0.15;94.56;62927.91;5071438;28;20216;-57
2024/01/15 00:59:34;;;;;;;34.97;16.47;;;;;;;0.16;92.82;62928.44;5053194;28;20246;-54
2024/01/15 01:01:59;;;;;;;30.80;14.70;;;;;;;0.26;90.43;62937.34;5053121;28;20212;-54
2024/01/15 01:04:25;;;;;;;36.93;20.33;;;;;;;0.04;94.15;62913.53;5070969;28;20205;-53
2024/01/15 01:06:50;;;;;;;32.47;16.37;;;;;;;0.04;95.75;62917.94;5070948;28;20637;-55
2024/01/15 01:09:16;;;;;;;29.07;15.93;;;;;;;0.05;95.35;62916.53;5052966;28;20215;-52
2024/01/15 01:11:41;;;;;;;28.53;15.00;;;;;;;0.00;96.00;62912.22;5070782;28;20215;-53
2024/01/15 01:14:07;;;;;;;31.23;16.10;;;;;;;-0.06;97.17;62908.19;5070878;28;20192;-55
2024/01/15 01:16:38;;;;;;;30.00;15.80;;;;;;;0.17;92.76;62930.06;5070776;28;20189;-54
2024/01/15 01:19:07;;;;;;;27.33;15.97;;;;;;;0.16;94.10;62928.44;5070792;28;20216;-54
2024/01/15 01:21:33;;;;;;;35.63;15.23;;;;;;;0.22;90.46;62932.47;5070892;28;20263;-52
2024/01/15 01:23:59;;;;;;;31.73;14.90;;;;;;;0.05;91.17;62914.59;5070979;28;20377;-52
2024/01/15 01:26:24;;;;;;;28.20;13.63;;;;;;;0.04;90.68;62913.00;5070728;28;20244;-54
2024/01/15 01:28:50;;;;;;;29.43;14.63;;;;;;;0.03;91.08;62914.38;5070601;28;20232;-52
2024/01/15 01:31:16;;;;;;;27.73;14.00;;;;;;;0.03;93.70;62914.38;5070602;28;20719;-53
2024/01/15 01:33:42;;;;;;;28.83;14.83;;;;;;;0.24;90.50;62934.63;5052656;28;20244;-53
2024/01/15 01:36:09;;;;;;;24.87;12.40;;;;;;;0.17;90.35;62927.59;5070449;28;20221;-54
2024/01/15 01:38:35;;;;;;;28.03;14.40;;;;;;;0.15;90.04;62925.44;5070370;28;20221;-53
2024/01/15 01:41:01;;;;;;;26.93;13.00;;;;;;;0.10;91.05;62917.00;5070612;28;20261;-53
2024/01/15 01:43:27;;;;;;;29.53;13.27;;;;;;;0.20;90.13;62933.34;5070322;28;20316;-52
2024/01/15 01:45:56;;;;;;;29.80;15.03;;;;;;;0.12;90.03;62919.19;5070360;28;20189;-54
2024/01/15 01:48:25;;;;;;;35.60;17.50;;;;;;;-0.03;92.75;62906.50;5051492;28;20213;-53
2024/01/15 01:50:59;;;;;;;37.27;17.70;;;;;;;0.08;89.96;62920.34;5069151;28;20268;-53
2024/01/15 01:53:26;;;;;;;45.67;21.83;;;;;;;-0.18;92.55;62892.72;5070368;28;20357;-56
2024/01/15 01:55:54;;;;;;;41.63;19.47;;;;;;;-0.19;93.89;62889.19;5052258;28;20193;-52
2024/01/15 01:58:20;;;;;;;36.50;19.90;;;;;;;-0.22;93.42;62888.41;5070328;28;20331;-53
2024/01/15 02:00:47;;;;;;;36.17;19.97;;;;;;;-0.25;94.59;62885.16;5052322;28;20189;-54
2024/01/15 02:03:13;;;;;;;40.57;20.33;;;;;;;-0.08;92.04;62903.00;5070131;28;20302;-52
2024/01/15 02:05:40;;;;;;;40.87;20.93;;;;;;;-0.18;92.52;62892.19;5070228;28;20180;-53
2024/01/15 02:08:06;;;;;;;42.17;19.77;;;;;;;-0.16;93.17;62894.34;5070392;28;20232;-53
2024/01/15 02:10:32;;;;;;;43.10;20.23;;;;;;;-0.13;92.92;62898.16;5052512;28;20192;-53
2024/01/15 02:12:58;;;;;;;43.83;19.93;;;;;;;-0.14;91.97;62894.59;5072083;28;20208;-53
2024/01/15 02:15:24;;;;;;;27.77;15.77;;;;;;;-0.31;92.31;62876.19;5073704;28;20223;-51
2024/01/15 02:18:04;;;;;;;29.27;16.23;;;;;;;-0.53;93.45;62852.41;5055446;28;20224;-53
2024/01/15 02:20:30;;;;;;;40.30;16.83;;;;;;;-0.68;97.06;62838.63;5055464;28;20262;-54
2024/01/15 02:23:10;;;;;;;28.20;14.40;;;;;;;-0.52;95.75;62855.41;5073451;28;20240;-53
2024/01/15 02:25:38;;;;;;;28.13;14.27;;;;;;;-0.28;93.53;62878.88;5073574;28;20276;-53
2024/01/15 02:28:04;;;;;;;22.37;11.90;;;;;;;-0.17;91.59;62891.34;5081253;22;20236;-52
2024/01/15 02:30:31;;;;;;;23.47;12.83;;;;;;;-0.13;91.08;62895.69;5055566;28;20195;-53
2024/01/15 02:32:56;;;;;;;22.93;10.77;;;;;;;-0.20;90.65;62885.06;5073376;28;20240;-54
2024/01/15 02:35:22;;;;;;;20.70;9.60;;;;;;;-0.32;93.48;62875.09;5073499;28;20630;-52
2024/01/15 02:37:47;;;;;;;21.03;9.57;;;;;;;-0.26;94.53;62883.53;5055308;28;20213;-51
2024/01/15 02:40:13;;;;;;;19.27;10.57;;;;;;;-0.10;93.21;62900.84;5073286;28;20196;-53
2024/01/15 02:42:39;;;;;;;15.53;8.43;;;;;;;-0.05;89.36;62904.34;5055407;28;20236;-53
2024/01/15 02:45:05;;;;;;;17.53;9.07;;;;;;;0.00;87.91;62909.72;5073262;28;20655;-53
2024/01/15 02:47:30;;;;;;;17.40;9.13;;;;;;;0.00;87.52;62914.16;5073259;28;20252;-55
2024/01/15 02:49:56;;;;;;;19.87;8.87;;;;;;;0.00;87.98;62907.25;5054995;28;20245;-53
2024/01/15 02:52:21;;;;;;;20.43;9.40;;;;;;;0.17;86.89;62929.53;5055104;28;20224;-53
2024/01/15 02:54:47;;;;;;;16.67;8.90;;;;;;;0.26;85.91;62937.34;5055178;28;20197;-53
2024/01/15 02:57:12;;;;;;;19.57;8.53;;;;;;;0.36;85.25;62950.66;5073339;28;20295;-53
2024/01/15 02:59:38;;;;;;;19.87;9.33;;;;;;;0.31;87.99;62944.69;5055060;28;20192;-53
2024/01/15 03:02:04;;;;;;;18.43;9.50;;;;;;;0.30;90.29;62939.22;5073048;28;20251;-60
2024/01/15 03:04:29;;;;;;;16.43;10.07;;;;;;;0.40;90.67;62954.44;5072844;28;20208;-54
2024/01/15 03:06:55;;;;;;;19.97;9.67;;;;;;;0.47;90.44;62959.53;5055067;28;20284;-55
2024/01/15 03:09:20;;;;;;;20.03;10.63;;;;;;;0.16;93.00;62928.44;5072831;28;20337;-54
2024/01/15 03:11:46;;;;;;;21.00;12.07;;;;;;;-0.33;94.83;62871.00;5072739;28;20201;-54
2024/01/15 03:14:12;;;;;;;26.27;12.27;;;;;;;-1.25;100.00;62777.53;5072638;28;20185;-53
2024/01/15 03:16:37;;;;;;;23.13;11.83;;;;;;;-0.94;100.00;62811.06;5072671;28;20192;-54
2024/01/15 03:19:03;;;;;;;23.10;12.33;;;;;;;-0.46;97.53;62861.88;5038466;28;20275;-52
2024/01/15 03:21:28;;;;;;;21.83;10.67;;;;;;;-0.05;93.60;62904.34;5072593;28;20196;-53
2024/01/15 03:23:54;;;;;;;21.53;9.47;;;;;;;0.14;91.76;62924.34;5071261;28;20586;-53
2024/01/15 03:26:20;;;;;;;19.67;10.03;;;;;;;-0.01;92.89;62908.13;5072508;28;20212;-54
2024/01/15 03:28:46;;;;;;;23.23;10.30;;;;;;;0.10;91.00;62921.97;5072366;28;20656;-51
2024/01/15 03:31:19;;;;;;;20.20;10.53;;;;;;;0.18;88.62;62930.63;5054820;28;20193;-52
2024/01/15 03:33:44;;;;;;;22.80;12.13;;;;;;;-0.10;92.04;62901.38;5082624;22;20714;-52
2024/01/15 03:36:10;;;;;;;22.73;10.57;;;;;;;-0.34;93.92;62872.94;5072472;28;21255;-53
2024/01/15 03:38:40;;;;;;;22.07;10.80;;;;;;;-0.24;91.68;62883.75;5072409;28;20584;-53
2024/01/15 03:41:06;;;;;;;20.13;11.60;;;;;;;-0.55;94.76;62850.22;5054316;28;20639;-53
2024/01/15 03:43:31;;;;;;;19.73;9.83;;;;;;;-0.53;95.26;62854.31;5054510;28;20295;-54
2024/01/15 03:45:57;;;;;;;16.77;9.40;;;;;;;-0.44;93.07;62864.06;5072342;28;20212;-53
2024/01/15 03:48:22;;;;;;;18.97;9.97;;;;;;;-0.57;95.92;62847.53;5072049;28;20217;-54
2024/01/15 03:50:48;;;;;;;23.47;12.07;;;;;;;-1.67;100.00;62734.63;5072398;28;20181;-53
2024/01/15 03:53:13;;;;;;;20.40;10.00;;;;;;;-1.19;100.00;62784.03;5071935;28;20300;-52
2024/01/15 03:55:40;;;;;;;23.30;11.13;;;;;;;-1.76;100.00;62720.50;5072484;28;20192;-54
2024/01/15 03:58:05;;;;;;;25.17;12.37;;;;;;;-1.51;100.00;62746.97;5071991;28;20205;-54
2024/01/15 04:00:31;;;;;;;28.13;12.93;;;;;;;-1.34;100.00;62764.81;5054077;28;20279;-58
2024/01/15 04:02:56;;;;;;;24.37;12.13;;;;;;;-1.04;100.00;62799.72;5070590;28;20238;-55
2024/01/15 04:05:22;;;;;;;22.03;11.97;;;;;;;-0.91;99.18;62813.78;5071431;28;20184;-52
2024/01/15 04:07:48;;;;;;;21.33;11.07;;;;;;;-0.94;98.95;62808.59;5072226;28;20731;-52
2024/01/15 04:10:13;;;;;;;23.97;11.77;;;;;;;-0.78;98.18;62827.81;5054190;28;20188;-53
2024/01/15 04:12:39;;;;;;;21.03;11.13;;;;;;;-0.54;97.04;62853.22;5071875;28;20294;-53
2024/01/15 04:15:05;;;;;;;23.23;11.37;;;;;;;-0.55;96.92;62850.22;5072155;28;20268;-53
2024/01/15 04:17:30;;;;;;;22.57;11.50;;;;;;;-0.90;100.00;62815.38;5072157;28;20243;-53
2024/01/15 04:19:56;;;;;;;24.67;13.13;;;;;;;-1.39;100.00;62757.47;5071663;28;20213;-53
2024/01/15 04:22:21;;;;;;;27.37;14.07;;;;;;;-1.73;100.00;62725.69;5053677;28;20262;-53
2024/01/15 04:24:47;;;;;;;26.50;12.63;;;;;;;-1.67;100.00;62732.16;5053664;28;20238;-52
2024/01/15 04:27:13;;;;;;;25.90;14.10;;;;;;;-1.18;100.00;62785.13;5053703;28;20689;-53
2024/01/15 04:29:39;;;;;;;28.37;13.40;;;;;;;-0.79;100.00;62826.75;5071554;28;20207;-58
2024/01/15 04:32:05;;;;;;;26.23;13.20;;;;;;;-0.53;98.97;62854.88;5071872;28;20581;-51
2024/01/15 04:34:31;;;;;;;26.40;11.77;;;;;;;-0.52;97.98;62855.41;5071545;28;20342;-54
2024/01/15 04:36:57;;;;;;;20.10;11.97;;;;;;;-0.70;99.05;62835.94;5071275;28;20674;-53
2024/01/15 04:39:24;;;;;;;21.53;12.00;;;;;;;-0.59;98.08;62845.91;5053558;28;20215;-54
2024/01/15 04:41:49;;;;;;;22.50;10.70;;;;;;;-0.64;97.51;62842.41;5071339;28;20310;-52
2024/01/15 04:44:15;;;;;;;21.40;11.13;;;;;;;-0.60;96.62;62847.28;5071462;28;20205;-52
2024/01/15 04:46:41;;;;;;;18.60;10.67;;;;;;;-0.57;96.78;62853.00;5071189;28;20227;-54
2024/01/15 04:49:06;;;;;;;21.17;11.20;;;;;;;-0.48;95.61;62860.28;5071460;28;20242;-53
2024/01/15 04:51:32;;;;;;;22.37;13.13;;;;;;;-0.66;98.83;62840.81;5071386;28;20207;-52
2024/01/15 04:53:57;;;;;;;22.10;11.77;;;;;;;-0.51;97.43;62854.00;5053242;28;20615;-51
2024/01/15 04:56:23;;;;;;;23.83;12.00;;;;;;;-0.65;99.62;62841.34;5071287;28;20212;-53
2024/01/15 04:58:48;;;;;;;21.93;11.53;;;;;;;-0.48;98.43;62862.75;5070981;28;20207;-51
2024/01/15 05:01:17;;;;;;;20.70;11.13;;;;;;;-0.46;99.01;62862.44;5053132;28;20310;-54
2024/01/15 05:03:44;;;;;;;22.70;10.53;;;;;;;-0.21;95.27;62889.50;5052664;28;20201;-53
2024/01/15 05:06:10;;;;;;;23.20;12.23;;;;;;;-0.34;96.20;62877.88;5070579;28;20197;-53
2024/01/15 05:08:35;;;;;;;19.77;10.47;;;;;;;-0.46;96.10;62862.44;5069763;28;20216;-52
2024/01/15 05:11:01;;;;;;;18.37;10.47;;;;;;;-0.41;97.43;62867.84;5052982;28;20651;-53
2024/01/15 05:13:26;;;;;;;21.47;11.47;;;;;;;-0.37;95.87;62871.63;5071008;28;20224;-53
2024/01/15 05:15:52;;;;;;;22.70;12.83;;;;;;;-0.31;95.16;62878.66;5070974;28;20646;-52
2024/01/15 05:18:18;;;;;;;21.63;12.17;;;;;;;-0.20;94.96;62890.00;5070768;28;20706;-54
2024/01/15 05:20:44;;;;;;;27.33;13.07;;;;;;;-0.09;93.79;62902.47;5078274;22;20599;-53
2024/01/15 05:23:10;;;;;;;23.37;13.10;;;;;;;-0.22;94.60;62885.91;5070823;28;20211;-52
2024/01/15 05:25:35;;;;;;;23.57;11.83;;;;;;;-0.25;96.19;62882.69;5070872;28;20672;-52
2024/01/15 05:28:01;;;;;;;19.77;12.30;;;;;;;-0.21;95.25;62887.00;5070896;28;20258;-52
2024/01/15 05:30:26;;;;;;;18.77;10.83;;;;;;;-0.94;98.62;62810.53;5070140;28;20202;-54
2024/01/15 05:32:52;;;;;;;20.80;10.77;;;;;;;-0.76;99.70;62827.50;5050594;28;20216;-54
2024/01/15 05:35:18;;;;;;;24.07;12.10;;;;;;;-0.90;100.00;62814.84;5070892;28;20227;-54
2024/01/15 05:37:45;;;;;;;24.80;12.17;;;;;;;-0.85;100.00;62820.78;5070429;28;20324;-53
2024/01/15 05:40:15;;;;;;;27.50;14.80;;;;;;;-1.52;100.00;62745.34;5070421;28;20735;-53
2024/01/15 05:42:41;;;;;;;29.40;14.53;;;;;;;-1.48;100.00;62755.16;5070478;28;20295;-54
2024/01/15 05:45:07;;;;;;;25.13;13.87;;;;;;;-1.05;100.00;62798.63;5052497;28;20200;-53
2024/01/15 05:47:33;;;;;;;26.57;15.43;;;;;;;-1.48;100.00;62752.16;5053400;28;20230;-53
2024/01/15 05:50:00;;;;;;;31.20;16.00;;;;;;;-2.33;100.00;62658.97;5073974;28;20184;-53
2024/01/15 05:52:26;;;;;;;29.80;17.03;;;;;;;-2.18;100.00;62677.59;5073791;28;20204;-55
2024/01/15 05:54:52;;;;;;;34.97;17.90;;;;;;;-2.25;100.00;62669.53;5073877;28;20180;-53
2024/01/15 05:57:18;;;;;;;35.03;17.33;;;;;;;-2.14;100.00;62683.88;5073867;28;20211;-54
2024/01/15 05:59:44;;;;;;;32.17;17.07;;;;;;;-2.03;100.00;62693.28;5073653;28;20181;-53
2024/01/15 06:02:11;;;;;;;36.47;17.30;;;;;;;-1.76;100.00;62722.97;5073856;28;20242;-54
2024/01/15 06:04:37;;;;;;;36.17;16.07;;;;;;;-1.42;100.00;62759.19;5072214;28;20184;-53
2024/01/15 06:07:03;;;;;;;30.73;15.53;;;;;;;-1.51;100.00;62749.44;5073969;28;20220;-53
2024/01/15 06:09:29;;;;;;;35.60;16.63;;;;;;;-1.76;100.00;62725.44;5073663;28;20196;-53
2024/01/15 06:11:55;;;;;;;36.30;17.23;;;;;;;-1.47;100.00;62753.22;5073580;28;20216;-52
2024/01/15 06:14:21;;;;;;;31.83;16.70;;;;;;;-1.28;100.00;62773.75;5073691;28;20186;-52
2024/01/15 06:16:46;;;;;;;29.17;16.63;;;;;;;-1.16;100.00;62786.72;5073836;28;20986;-51
2024/01/15 06:19:12;;;;;;;35.97;15.27;;;;;;;-0.73;100.00;62832.69;5073590;28;20610;-51
2024/01/15 06:21:38;;;;;;;36.00;16.30;;;;;;;-0.58;100.00;62849.44;5039059;28;20581;-52
2024/01/15 06:24:04;;;;;;;36.03;17.83;;;;;;;-0.82;100.00;62823.50;5073514;28;20199;-51
2024/01/15 06:26:29;;;;;;;32.03;16.00;;;;;;;-0.67;100.00;62837.25;5073545;28;20667;-53
2024/01/15 06:28:55;;;;;;;37.20;18.00;;;;;;;-0.44;100.00;62862.13;5073349;28;20185;-55
2024/01/15 06:31:21;;;;;;;29.47;16.00;;;;;;;-0.25;100.00;62885.16;5073135;28;20215;-56
2024/01/15 06:33:48;;;;;;;37.10;17.10;;;;;;;-0.07;100.00;62901.63;5071629;28;20239;-51
2024/01/15 06:36:18;;;;;;;34.87;17.10;;;;;;;-0.06;100.00;62900.75;5072023;28;20257;-55
2024/01/15 06:38:44;;;;;;;38.03;18.63;;;;;;;0.14;96.33;62926.28;5073332;28;20706;-51
2024/01/15 06:41:11;;;;;;;38.57;18.63;;;;;;;-0.01;100.00;62908.66;5073626;28;20208;-51
2024/01/15 06:43:36;;;;;;;34.37;18.73;;;;;;;0.03;100.00;62914.91;5055505;28;20204;-55
2024/01/15 06:46:02;;;;;;;37.30;19.70;;;;;;;0.28;96.20;62941.44;5073070;28;20564;-53
2024/01/15 06:48:28;;;;;;;35.17;18.27;;;;;;;-0.02;100.00;62910.03;5054757;28;20445;-54
2024/01/15 06:50:53;;;;;;;33.80;18.20;;;;;;;-0.49;100.00;62859.19;5071173;28;20200;-54
2024/01/15 06:53:19;;;;;;;41.50;17.60;;;;;;;-0.40;100.00;62868.91;5070942;28;20945;-53
2024/01/15 06:55:45;;;;;;;32.83;16.37;;;;;;;0.03;98.61;62911.91;5052946;28;20243;-53
2024/01/15 06:58:12;;;;;;;35.40;17.13;;;;;;;0.12;96.97;62922.19;5072523;28;20745;-53
2024/01/15 07:00:37;;;;;;;41.40;18.50;;;;;;;0.12;99.19;62924.66;5055282;28;20193;-54
2024/01/15 07:03:04;;;;;;;38.53;19.27;;;;;;;-0.37;100.00;62872.19;5072800;28;20288;-52
2024/01/15 07:05:30;;;;;;;35.30;18.57;;;;;;;-0.44;100.00;62862.13;5072906;28;20223;-55
2024/01/15 07:07:57;;;;;;;34.70;18.97;;;;;;;-0.15;100.00;62890.50;5054749;28;20760;-54
2024/01/15 07:10:23;;;;;;;42.90;21.97;;;;;;;-0.90;100.00;62814.84;5073041;28;20200;-53
2024/01/15 07:12:49;;;;;;;40.33;21.27;;;;;;;-0.58;100.00;62846.97;5072788;28;20208;-57
2024/01/15 07:15:15;;;;;;;36.93;19.53;;;;;;;-0.26;100.00;62886.00;5066559;22;20228;-52
2024/01/15 07:17:42;;;;;;;44.60;22.40;;;;;;;-0.61;100.00;62848.69;5054736;28;20264;-53
2024/01/15 07:20:09;;;;;;;44.77;21.47;;;;;;;-0.61;100.00;62846.22;5072711;28;20683;-51
2024/01/15 07:22:37;;;;;;;38.73;20.53;;;;;;;-0.34;100.00;62875.41;5072643;28;20200;-53
2024/01/15 07:25:04;;;;;;;36.93;20.60;;;;;;;-0.04;100.00;62907.34;5072595;28;20655;-51
2024/01/15 07:27:31;;;;;;;39.30;21.87;;;;;;;0.04;100.00;62917.94;5072680;28;20220;-52
2024/01/15 07:29:57;;;;;;;42.87;20.63;;;;;;;-0.13;100.00;62895.69;5072526;28;20195;-53
2024/01/15 07:32:22;;;;;;;40.53;21.07;;;;;;;0.24;99.59;62937.13;5070632;28;20702;-52
2024/01/15 07:34:48;;;;;;;46.23;21.47;;;;;;;0.22;100.00;62935.50;5054182;28;20231;-55
2024/01/15 07:37:13;;;;;;;37.90;19.40;;;;;;;0.26;100.00;62937.34;5054009;28;20212;-53
2024/01/15 07:39:39;;;;;;;39.93;19.30;;;;;;;0.20;97.35;62930.31;5072339;28;20673;-53
2024/01/15 07:42:08;;;;;;;42.17;18.10;;;;;;;0.42;96.02;62957.16;5072225;28;20258;-51
2024/01/15 07:44:33;;;;;;;39.07;19.60;;;;;;;0.59;95.50;62975.56;5054725;28;20322;-52
2024/01/15 07:46:59;;;;;;;38.40;17.30;;;;;;;0.71;95.29;62988.53;5072251;28;20223;-54
2024/01/15 07:49:27;;;;;;;38.67;17.43;;;;;;;0.65;94.43;62982.06;5072751;28;20244;-52
2024/01/15 07:51:52;;;;;;;32.27;16.63;;;;;;;0.50;95.31;62962.78;5072315;28;20197;-53
2024/01/15 07:54:18;;;;;;;33.60;16.00;;;;;;;0.64;94.65;62980.44;5054030;28;20247;-53
2024/01/15 07:57:16;;;;;;;26.97;14.80;;;;;;;0.47;92.89;62962.56;5072154;28;20617;-53
2024/01/15 07:59:42;;;;;;;32.53;15.87;;;;;;;-0.03;100.00;62908.97;5049100;28;20208;-53
2024/01/15 08:02:07;;;;;;;33.27;15.90;;;;;;;-0.14;100.00;62894.59;5070750;28;20223;-54
2024/01/15 08:04:33;;;;;;;33.63;15.30;;;;;;;0.12;100.00;62924.13;5072186;28;20185;-55
2024/01/15 08:06:58;;;;;;;43.43;17.50;;;;;;;0.32;99.65;62945.78;5053860;28;20709;-53
2024/01/15 08:09:24;;;;;;;25.60;11.93;;;;;;;0.16;97.44;62925.97;5072408;28;20197;-55
2024/01/15 08:11:49;;;;;;;28.43;14.43;;;;;;;0.19;96.71;62931.69;5071342;28;20209;-58
2024/01/15 08:14:16;;;;;;;23.20;14.00;;;;;;;-0.12;100.00;62896.75;5072114;28;20195;-51
2024/01/15 08:16:43;;;;;;;25.30;13.47;;;;;;;0.20;96.65;62930.31;5071919;28;20704;-56
2024/01/15 08:19:09;;;;;;;27.53;13.63;;;;;;;0.39;96.40;62953.34;5071949;28;20195;-53
2024/01/15 08:21:34;;;;;;;32.73;12.47;;;;;;;0.81;94.31;62996.34;5071732;28;20250;-53
2024/01/15 08:24:02;;;;;;;25.33;13.47;;;;;;;0.95;95.60;63013.47;5071762;28;20201;-52
2024/01/15 08:26:29;;;;;;;23.03;11.77;;;;;;;1.17;91.79;63037.31;5071672;28;20181;-54
2024/01/15 08:28:54;;;;;;;21.53;10.70;;;;;;;1.42;86.70;63064.41;5054034;28;20647;-52
2024/01/15 08:31:20;;;;;;;23.57;11.50;;;;;;;1.43;84.57;63066.03;5070435;28;20792;-54
2024/01/15 08:33:46;;;;;;;21.80;10.80;;;;;;;1.36;89.24;63057.91;5071685;28;20215;-54
2024/01/15 08:36:12;;;;;;;28.37;13.67;;;;;;;1.92;88.38;63115.59;5071653;28;20213;-54
2024/01/15 08:38:38;;;;;;;30.13;14.53;;;;;;;2.33;82.50;63163.09;5053473;28;20220;-54
2024/01/15 08:41:04;;;;;;;26.40;14.07;;;;;;;2.15;83.88;63143.03;5053414;28;20644;-54
2024/01/15 08:43:33;;;;;;;30.53;15.80;;;;;;;3.09;80.98;63242.06;5071046;28;20299;-54
2024/01/15 08:45:59;;;;;;;38.77;16.90;;;;;;;3.55;77.06;63293.97;5053251;28;20270;-55
2024/01/15 08:48:27;;;;;;;37.90;17.50;;;;;;;4.43;74.03;63387.13;5070997;28;20217;-54
2024/01/15 08:50:54;;;;;;;48.23;21.83;;;;;;;3.72;74.61;63312.41;5071199;28;20216;-55
2024/01/15 08:53:21;;;;;;;41.80;20.87;;;;;;;4.62;69.38;63407.81;5071215;28;20261;-54
2024/01/15 08:55:47;;;;;;;37.33;19.33;;;;;;;4.77;68.22;63426.59;5071105;28;20195;-54
2024/01/15 08:58:13;;;;;;;40.77;20.10;;;;;;;4.66;67.86;63412.16;5070938;28;20224;-53
2024/01/15 09:00:39;;;;;;;44.73;22.67;;;;;;;3.98;71.97;63338.75;5071194;28;20181;-53
2024/01/15 09:03:05;;;;;;;38.37;20.67;;;;;;;4.92;69.49;63442.94;5036513;28;20212;-54
2024/01/15 09:05:30;;;;;;;36.73;18.77;;;;;;;5.02;66.00;63453.28;5071134;28;20193;-53
2024/01/15 09:07:56;;;;;;;41.17;19.87;;;;;;;5.94;64.45;63552.91;5053055;28;20712;-54
2024/01/15 09:10:22;;;;;;;37.00;20.73;;;;;;;6.96;60.78;63658.00;5071086;28;20184;-53
2024/01/15 09:12:49;;;;;;;43.53;21.40;;;;;;;7.46;59.03;63715.59;5070788;28;20223;-55
2024/01/15 09:15:14;;;;;;;44.80;22.37;;;;;;;7.69;57.52;63737.09;5070778;28;20187;-54
2024/01/15 09:17:40;;;;;;;48.37;26.70;;;;;;;7.20;58.83;63687.22;5070760;28;20211;-54
2024/01/15 09:20:06;;;;;;;51.37;28.17;;;;;;;6.30;60.16;63592.13;5051028;28;20218;-54
2024/01/15 09:22:32;;;;;;;52.17;28.63;;;;;;;6.29;62.25;63590.50;5070326;28;20213;-52
2024/01/15 09:24:58;;;;;;;54.13;28.63;;;;;;;5.46;65.08;63498.66;5070655;28;20378;-54
2024/01/15 09:27:26;;;;;;;53.30;25.63;;;;;;;5.13;65.94;63463.28;5069784;28;20251;-54
2024/01/15 09:29:53;;;;;;;49.43;24.87;;;;;;;4.95;65.21;63443.69;5069606;28;20198;-53
2024/01/15 09:32:18;;;;;;;47.33;24.87;;;;;;;3.85;71.32;63324.06;5070792;28;20266;-54
2024/01/15 09:34:46;;;;;;;48.47;23.87;;;;;;;4.28;69.83;63370.81;5070635;28;20192;-54
2024/01/15 09:37:12;;;;;;;53.00;25.47;;;;;;;4.35;70.33;63377.88;5070466;28;20216;-54
2024/01/15 09:39:37;;;;;;;56.70;26.17;;;;;;;3.97;73.91;63340.16;5070935;28;20192;-55
2024/01/15 09:42:04;;;;;;;46.97;25.53;;;;;;;3.64;74.69;63298.75;5069967;28;20307;-55
2024/01/15 09:44:31;;;;;;;46.13;25.33;;;;;;;3.45;76.17;63283.09;5070847;28;20275;-54
2024/01/15 09:46:57;;;;;;;44.97;25.77;;;;;;;3.03;77.56;63238.56;5070578;28;20234;-54
2024/01/15 09:49:23;;;;;;;46.00;25.47;;;;;;;2.94;76.07;63228.25;5070580;28;20181;-56
2024/01/15 09:51:49;;;;;;;51.50;23.83;;;;;;;2.54;78.41;63180.91;5070630;28;20283;-54
2024/01/15 09:54:17;;;;;;;36.47;21.17;;;;;;;2.45;80.52;63173.09;5070441;28;20185;-54
2024/01/15 09:56:46;;;;;;;50.90;21.23;;;;;;;2.73;81.54;63203.50;5052284;28;20770;-53
2024/01/15 09:59:20;;;;;;;33.43;19.30;;;;;;;2.65;80.22;63194.28;5070501;28;20195;-53
2024/01/15 10:01:47;;;;;;;25.33;15.47;;;;;;;2.76;78.44;63209.25;5052288;28;20197;-54
2024/01/15 10:04:13;;;;;;;30.77;15.40;;;;;;;2.65;73.92;63199.78;5052495;28;20197;-58
2024/01/15 10:06:42;;;;;;;31.60;14.30;;;;;;;2.73;76.41;63205.97;5052273;28;20834;-57
2024/01/15 10:09:07;;;;;;;26.90;14.67;;;;;;;2.07;77.90;63134.91;5052287;28;20208;-55
2024/01/15 10:11:34;;;;;;;28.83;15.23;;;;;;;1.97;80.12;63126.00;5070251;28;20244;-54
2024/01/15 10:14:00;;;;;;;31.33;16.23;;;;;;;1.64;81.55;63085.78;5070160;28;20246;-54
2024/01/15 10:16:26;;;;;;;33.03;15.37;;;;;;;1.86;83.55;63106.63;5070038;28;20666;-53
2024/01/15 10:18:52;;;;;;;34.67;15.10;;;;;;;1.91;80.30;63117.53;5070163;28;20209;-55
2024/01/15 10:21:19;;;;;;;28.87;15.10;;;;;;;1.48;84.64;63068.97;5070045;28;20262;-55
2024/01/15 10:23:45;;;;;;;24.00;14.00;;;;;;;1.60;84.05;63083.91;5052120;28;20209;-54
2024/01/15 10:26:11;;;;;;;29.03;15.03;;;;;;;1.45;84.31;63065.19;5052320;28;20693;-54
2024/01/15 10:28:37;;;;;;;28.13;14.03;;;;;;;1.55;83.44;63076.03;5069922;28;20219;-54
2024/01/15 10:31:04;;;;;;;26.57;14.30;;;;;;;1.99;80.97;63125.69;5070010;28;20181;-56
2024/01/15 10:33:29;;;;;;;27.97;14.07;;;;;;;2.52;78.06;63183.19;5070978;28;20262;-55
2024/01/15 10:35:57;;;;;;;28.67;15.30;;;;;;;2.72;76.64;63204.91;5055509;28;20616;-55
2024/01/15 10:38:24;;;;;;;29.50;15.53;;;;;;;2.82;77.12;63213.28;5055628;28;20209;-54
2024/01/15 10:40:54;;;;;;;25.13;14.67;;;;;;;2.27;78.73;63156.06;5055356;28;20201;-55
2024/01/15 10:43:28;;;;;;;25.67;13.93;;;;;;;2.28;79.97;63157.66;5055696;28;20577;-54
2024/01/15 10:45:53;;;;;;;30.83;16.83;;;;;;;2.53;77.37;63181.78;5073289;28;20698;-55
2024/01/15 10:48:19;;;;;;;29.60;15.60;;;;;;;2.58;76.08;63189.72;5038816;28;20244;-54
2024/01/15 10:50:46;;;;;;;30.63;15.53;;;;;;;2.41;76.76;63168.75;5073251;28;20648;-55
2024/01/15 10:53:14;;;;;;;30.77;16.13;;;;;;;2.40;78.63;63168.22;5073080;28;20642;-54
2024/01/15 10:55:41;;;;;;;34.27;16.00;;;;;;;2.72;75.00;63204.34;5073312;28;20198;-58
2024/01/15 10:58:07;;;;;;;36.37;16.43;;;;;;;2.43;77.21;63173.41;5072954;28;20211;-54
2024/01/15 11:00:37;;;;;;;35.20;17.17;;;;;;;2.59;76.42;63193.25;5072978;28;20266;-55
2024/01/15 11:03:07;;;;;;;31.70;16.60;;;;;;;3.02;74.49;63232.50;5072785;28;20217;-55
2024/01/15 11:05:41;;;;;;;36.60;19.40;;;;;;;3.11;74.98;63244.22;5073156;28;20194;-55
2024/01/15 11:08:08;;;;;;;34.27;17.37;;;;;;;3.48;70.89;63283.84;5074345;28;20212;-56
2024/01/15 11:10:51;;;;;;;37.07;16.67;;;;;;;3.63;69.74;63302.66;5074002;28;20196;-54
2024/01/15 11:13:41;;;;;;;34.20;16.90;;;;;;;3.41;71.54;63276.81;5072736;28;20218;-55
2024/01/15 11:16:08;;;;;;;30.70;16.60;;;;;;;3.75;70.00;63318.72;5072811;28;20711;-56